sensor_id;sensor_type;location;lat;lon;timestamp;pressure;altitude;pressure_sealevel;temperature;humidity
27334;BME280;14817;57.104;-2.094;2023-09-30T00:00:06;98414.56;;;10.58;100.00
27334;BME280;14817;57.104;-2.094;2023-09-30T00:02:38;98417.00;;;10.53;100.00
27334;BME280;14817;57.104;-2.094;2023-09-30T00:05:05;98403.22;;;10.50;100.00
27334;BME280;14817;57.104;-2.094;2023-09-30T00:07:34;98394.16;;;10.44;100.00
27334;BME280;14817;57.104;-2.094;2023-09-30T00:10:01;98384.25;;;10.45;100.00
27334;BME280;14817;57.104;-2.094;2023-09-30T00:12:29;98366.56;;;10.44;100.00
27334;BME280;14817;57.104;-2.094;2023-09-30T00:14:56;98350.53;;;10.44;100.00
27334;BME280;14817;57.104;-2.094;2023-09-30T00:17:23;98345.38;;;10.42;100.00
27334;BME280;14817;57.104;-2.094;2023-09-30T00:19:49;98339.38;;;10.40;100.00
27334;BME280;14817;57.104;-2.094;2023-09-30T00:22:16;98323.34;;;10.33;100.00
27334;BME280;14817;57.104;-2.094;2023-09-30T00:24:43;98299.00;;;10.28;100.00
27334;BME280;14817;57.104;-2.094;2023-09-30T00:27:10;98171.47;;;10.22;100.00
27334;BME280;14817;57.104;-2.094;2023-09-30T00:29:36;98123.28;;;10.15;100.00
27334;BME280;14817;57.104;-2.094;2023-09-30T00:32:03;98070.66;;;10.16;100.00
27334;BME280;14817;57.104;-2.094;2023-09-30T00:34:34;97986.69;;;10.17;100.00
27334;BME280;14817;57.104;-2.094;2023-09-30T00:37:03;97920.44;;;10.19;100.00
27334;BME280;14817;57.104;-2.094;2023-09-30T00:39:34;97876.78;;;10.25;100.00
27334;BME280;14817;57.104;-2.094;2023-09-30T00:42:02;97838.09;;;10.28;100.00
27334;BME280;14817;57.104;-2.094;2023-09-30T00:44:31;97798.47;;;10.18;100.00
27334;BME280;14817;57.104;-2.094;2023-09-30T00:46:58;97763.50;;;10.13;100.00
27334;BME280;14817;57.104;-2.094;2023-09-30T00:49:26;97722.53;;;10.19;100.00
27334;BME280;14817;57.104;-2.094;2023-09-30T00:51:52;97673.97;;;10.22;100.00
27334;BME280;14817;57.104;-2.094;2023-09-30T00:54:21;97383.59;;;10.26;100.00
27334;BME280;14817;57.104;-2.094;2023-09-30T00:56:49;97386.16;;;10.21;100.00
27334;BME280;14817;57.104;-2.094;2023-09-30T00:59:17;97389.16;;;10.13;100.00
27334;BME280;14817;57.104;-2.094;2023-09-30T01:01:45;97397.25;;;10.06;100.00
27334;BME280;14817;57.104;-2.094;2023-09-30T01:04:15;97366.75;;;9.95;100.00
27334;BME280;14817;57.104;-2.094;2023-09-30T01:06:42;97330.31;;;10.01;100.00
27334;BME280;14817;57.104;-2.094;2023-09-30T01:09:09;97302.13;;;9.98;100.00
27334;BME280;14817;57.104;-2.094;2023-09-30T01:11:36;97285.28;;;9.98;100.00
27334;BME280;14817;57.104;-2.094;2023-09-30T01:14:03;97236.25;;;10.04;100.00
27334;BME280;14817;57.104;-2.094;2023-09-30T01:16:30;97179.19;;;10.10;100.00
27334;BME280;14817;57.104;-2.094;2023-09-30T01:18:56;97183.47;;;10.11;100.00
27334;BME280;14817;57.104;-2.094;2023-09-30T01:21:24;97170.00;;;10.06;100.00
27334;BME280;14817;57.104;-2.094;2023-09-30T01:23:51;97173.59;;;10.00;100.00
27334;BME280;14817;57.104;-2.094;2023-09-30T01:26:18;97165.38;;;10.01;100.00
27334;BME280;14817;57.104;-2.094;2023-09-30T01:28:44;97150.94;;;10.02;100.00
27334;BME280;14817;57.104;-2.094;2023-09-30T01:31:13;97140.97;;;10.10;100.00
27334;BME280;14817;57.104;-2.094;2023-09-30T01:33:40;97146.19;;;10.16;100.00
27334;BME280;14817;57.104;-2.094;2023-09-30T01:36:06;97151.19;;;10.13;100.00
27334;BME280;14817;57.104;-2.094;2023-09-30T01:38:35;97186.84;;;10.07;100.00
27334;BME280;14817;57.104;-2.094;2023-09-30T01:41:03;97219.84;;;10.00;100.00
27334;BME280;14817;57.104;-2.094;2023-09-30T01:43:30;97241.94;;;9.96;100.00
27334;BME280;14817;57.104;-2.094;2023-09-30T01:45:56;97268.06;;;9.94;100.00
27334;BME280;14817;57.104;-2.094;2023-09-30T01:48:25;97284.44;;;9.86;100.00
27334;BME280;14817;57.104;-2.094;2023-09-30T01:50:51;97295.22;;;9.79;100.00
27334;BME280;14817;57.104;-2.094;2023-09-30T01:53:18;97293.59;;;9.78;100.00
27334;BME280;14817;57.104;-2.094;2023-09-30T01:55:45;97306.16;;;9.77;100.00
27334;BME280;14817;57.104;-2.094;2023-09-30T01:58:11;97308.47;;;9.74;100.00
27334;BME280;14817;57.104;-2.094;2023-09-30T02:00:39;97305.19;;;9.72;100.00
27334;BME280;14817;57.104;-2.094;2023-09-30T02:03:06;97307.97;;;9.65;100.00
27334;BME280;14817;57.104;-2.094;2023-09-30T02:05:36;97303.13;;;9.74;100.00
27334;BME280;14817;57.104;-2.094;2023-09-30T02:08:03;97310.66;;;9.77;100.00
27334;BME280;14817;57.104;-2.094;2023-09-30T02:10:33;97319.16;;;9.74;100.00
27334;BME280;14817;57.104;-2.094;2023-09-30T02:13:00;97336.22;;;9.73;100.00
27334;BME280;14817;57.104;-2.094;2023-09-30T02:15:27;97339.72;;;9.73;100.00
27334;BME280;14817;57.104;-2.094;2023-09-30T02:17:54;97348.91;;;9.77;100.00
27334;BME280;14817;57.104;-2.094;2023-09-30T02:20:21;97363.97;;;9.72;100.00
27334;BME280;14817;57.104;-2.094;2023-09-30T02:22:52;97381.63;;;9.73;100.00
27334;BME280;14817;57.104;-2.094;2023-09-30T02:25:19;97397.75;;;9.66;100.00
27334;BME280;14817;57.104;-2.094;2023-09-30T02:27:45;97425.59;;;9.58;100.00
27334;BME280;14817;57.104;-2.094;2023-09-30T02:30:12;97441.63;;;9.58;100.00
27334;BME280;14817;57.104;-2.094;2023-09-30T02:32:40;97453.34;;;9.57;100.00
27334;BME280;14817;57.104;-2.094;2023-09-30T02:35:09;97454.22;;;9.51;100.00
27334;BME280;14817;57.104;-2.094;2023-09-30T02:37:38;97444.00;;;9.48;100.00
27334;BME280;14817;57.104;-2.094;2023-09-30T02:40:05;97420.84;;;9.60;100.00
27334;BME280;14817;57.104;-2.094;2023-09-30T02:42:36;97427.59;;;9.63;100.00
27334;BME280;14817;57.104;-2.094;2023-09-30T02:45:04;97447.66;;;9.54;100.00
27334;BME280;14817;57.104;-2.094;2023-09-30T02:47:32;97461.88;;;9.48;100.00
27334;BME280;14817;57.104;-2.094;2023-09-30T02:49:59;97461.63;;;9.49;100.00
27334;BME280;14817;57.104;-2.094;2023-09-30T02:52:26;97447.41;;;9.55;100.00
27334;BME280;14817;57.104;-2.094;2023-09-30T02:54:55;97429.00;;;9.66;100.00
27334;BME280;14817;57.104;-2.094;2023-09-30T02:57:23;97430.78;;;9.72;100.00
27334;BME280;14817;57.104;-2.094;2023-09-30T02:59:51;97435.31;;;9.71;100.00
27334;BME280;14817;57.104;-2.094;2023-09-30T03:02:25;97445.94;;;9.78;100.00
27334;BME280;14817;57.104;-2.094;2023-09-30T03:04:52;97444.44;;;9.82;100.00
27334;BME280;14817;57.104;-2.094;2023-09-30T03:07:20;97455.28;;;9.87;100.00
27334;BME280;14817;57.104;-2.094;2023-09-30T03:09:48;97497.09;;;9.81;100.00
27334;BME280;14817;57.104;-2.094;2023-09-30T03:12:15;97525.81;;;9.86;100.00
27334;BME280;14817;57.104;-2.094;2023-09-30T03:14:42;97571.53;;;9.78;100.00
27334;BME280;14817;57.104;-2.094;2023-09-30T03:17:10;97595.59;;;9.78;100.00
27334;BME280;14817;57.104;-2.094;2023-09-30T03:19:38;97623.34;;;9.77;100.00
27334;BME280;14817;57.104;-2.094;2023-09-30T03:22:05;97665.94;;;9.72;100.00
27334;BME280;14817;57.104;-2.094;2023-09-30T03:24:38;97685.97;;;9.63;100.00
27334;BME280;14817;57.104;-2.094;2023-09-30T03:27:06;97697.06;;;9.59;100.00
27334;BME280;14817;57.104;-2.094;2023-09-30T03:29:37;97717.69;;;9.52;100.00
27334;BME280;14817;57.104;-2.094;2023-09-30T03:32:07;97715.66;;;9.48;100.00
27334;BME280;14817;57.104;-2.094;2023-09-30T03:34:34;97730.69;;;9.42;100.00
27334;BME280;14817;57.104;-2.094;2023-09-30T03:37:03;97734.63;;;9.33;100.00
27334;BME280;14817;57.104;-2.094;2023-09-30T03:39:33;97732.59;;;9.28;100.00
27334;BME280;14817;57.104;-2.094;2023-09-30T03:42:00;97722.97;;;9.20;100.00
27334;BME280;14817;57.104;-2.094;2023-09-30T03:44:27;97715.41;;;9.17;100.00
27334;BME280;14817;57.104;-2.094;2023-09-30T03:46:54;97709.28;;;9.04;100.00
27334;BME280;14817;57.104;-2.094;2023-09-30T03:49:21;97709.56;;;8.89;100.00
27334;BME280;14817;57.104;-2.094;2023-09-30T03:51:48;97698.28;;;8.87;100.00
27334;BME280;14817;57.104;-2.094;2023-09-30T03:54:17;97683.53;;;8.77;100.00
27334;BME280;14817;57.104;-2.094;2023-09-30T03:56:47;97687.84;;;8.72;100.00
27334;BME280;14817;57.104;-2.094;2023-09-30T03:59:14;97675.94;;;8.74;100.00
27334;BME280;14817;57.104;-2.094;2023-09-30T04:01:40;97655.19;;;8.76;100.00
27334;BME280;14817;57.104;-2.094;2023-09-30T04:04:08;97632.19;;;8.82;100.00
27334;BME280;14817;57.104;-2.094;2023-09-30T04:06:38;97612.25;;;8.85;100.00
27334;BME280;14817;57.104;-2.094;2023-09-30T04:09:08;97582.50;;;8.88;100.00
27334;BME280;14817;57.104;-2.094;2023-09-30T04:11:38;97568.31;;;8.87;100.00
27334;BME280;14817;57.104;-2.094;2023-09-30T04:14:06;97551.69;;;8.92;100.00
27334;BME280;14817;57.104;-2.094;2023-09-30T04:16:34;97538.84;;;9.07;100.00
27334;BME280;14817;57.104;-2.094;2023-09-30T04:19:03;97519.84;;;9.22;100.00
27334;BME280;14817;57.104;-2.094;2023-09-30T04:21:29;97505.16;;;9.31;100.00
27334;BME280;14817;57.104;-2.094;2023-09-30T04:24:02;97500.16;;;9.42;100.00
27334;BME280;14817;57.104;-2.094;2023-09-30T04:26:30;97500.69;;;9.50;100.00
27334;BME280;14817;57.104;-2.094;2023-09-30T04:28:57;97494.22;;;9.58;100.00
27334;BME280;14817;57.104;-2.094;2023-09-30T04:31:24;97507.38;;;9.59;100.00
27334;BME280;14817;57.104;-2.094;2023-09-30T04:33:50;97506.56;;;9.59;100.00
27334;BME280;14817;57.104;-2.094;2023-09-30T04:36:18;97509.63;;;9.63;100.00
27334;BME280;14817;57.104;-2.094;2023-09-30T04:38:45;97500.94;;;9.67;100.00
27334;BME280;14817;57.104;-2.094;2023-09-30T04:41:12;97516.16;;;9.67;100.00
27334;BME280;14817;57.104;-2.094;2023-09-30T04:43:39;97525.72;;;9.74;100.00
27334;BME280;14817;57.104;-2.094;2023-09-30T04:46:06;97536.19;;;9.76;100.00
27334;BME280;14817;57.104;-2.094;2023-09-30T04:48:36;97563.75;;;9.76;100.00
27334;BME280;14817;57.104;-2.094;2023-09-30T04:51:05;97595.66;;;9.71;100.00
27334;BME280;14817;57.104;-2.094;2023-09-30T04:53:32;97624.25;;;9.71;100.00
27334;BME280;14817;57.104;-2.094;2023-09-30T04:56:00;97662.69;;;9.70;100.00
27334;BME280;14817;57.104;-2.094;2023-09-30T04:58:27;97683.06;;;9.64;100.00
27334;BME280;14817;57.104;-2.094;2023-09-30T05:00:57;97684.31;;;9.61;100.00
27334;BME280;14817;57.104;-2.094;2023-09-30T05:03:24;97695.00;;;9.61;100.00
27334;BME280;14817;57.104;-2.094;2023-09-30T05:05:52;97700.19;;;9.56;100.00
27334;BME280;14817;57.104;-2.094;2023-09-30T05:08:23;97725.50;;;9.47;100.00
27334;BME280;14817;57.104;-2.094;2023-09-30T05:10:51;97728.78;;;9.49;100.00
27334;BME280;14817;57.104;-2.094;2023-09-30T05:13:18;97736.19;;;9.47;100.00
27334;BME280;14817;57.104;-2.094;2023-09-30T05:15:46;97739.72;;;9.41;100.00
27334;BME280;14817;57.104;-2.094;2023-09-30T05:18:15;97746.34;;;9.32;100.00
27334;BME280;14817;57.104;-2.094;2023-09-30T05:20:41;97750.69;;;9.26;100.00
27334;BME280;14817;57.104;-2.094;2023-09-30T05:23:08;97765.09;;;9.18;100.00
27334;BME280;14817;57.104;-2.094;2023-09-30T05:25:39;97767.78;;;9.12;100.00
27334;BME280;14817;57.104;-2.094;2023-09-30T05:28:06;97775.59;;;9.07;100.00
27334;BME280;14817;57.104;-2.094;2023-09-30T05:30:33;97775.41;;;9.08;100.00
27334;BME280;14817;57.104;-2.094;2023-09-30T05:33:00;97749.50;;;9.15;100.00
27334;BME280;14817;57.104;-2.094;2023-09-30T05:35:29;97717.03;;;9.18;100.00
27334;BME280;14817;57.104;-2.094;2023-09-30T05:37:58;97691.94;;;9.26;100.00
27334;BME280;14817;57.104;-2.094;2023-09-30T05:40:25;97677.50;;;9.34;100.00
27334;BME280;14817;57.104;-2.094;2023-09-30T05:42:55;97675.88;;;9.33;100.00
27334;BME280;14817;57.104;-2.094;2023-09-30T05:45:28;97685.72;;;9.39;100.00
27334;BME280;14817;57.104;-2.094;2023-09-30T05:47:57;97688.59;;;9.37;100.00
27334;BME280;14817;57.104;-2.094;2023-09-30T05:50:29;97693.28;;;9.42;100.00
27334;BME280;14817;57.104;-2.094;2023-09-30T05:53:00;97695.75;;;9.44;100.00
27334;BME280;14817;57.104;-2.094;2023-09-30T05:55:27;97684.81;;;9.45;100.00
27334;BME280;14817;57.104;-2.094;2023-09-30T05:57:54;97689.53;;;9.50;100.00
27334;BME280;14817;57.104;-2.094;2023-09-30T06:00:22;97683.16;;;9.51;100.00
27334;BME280;14817;57.104;-2.094;2023-09-30T06:03:02;97670.56;;;9.58;100.00
27334;BME280;14817;57.104;-2.094;2023-09-30T06:05:30;97670.34;;;9.59;100.00
27334;BME280;14817;57.104;-2.094;2023-09-30T06:08:01;97676.91;;;9.64;100.00
27334;BME280;14817;57.104;-2.094;2023-09-30T06:10:30;97677.94;;;9.63;100.00
27334;BME280;14817;57.104;-2.094;2023-09-30T06:12:58;97691.72;;;9.59;100.00
27334;BME280;14817;57.104;-2.094;2023-09-30T06:15:26;97696.25;;;9.59;100.00
27334;BME280;14817;57.104;-2.094;2023-09-30T06:17:55;97696.25;;;9.59;100.00
27334;BME280;14817;57.104;-2.094;2023-09-30T06:20:22;97690.06;;;9.65;100.00
27334;BME280;14817;57.104;-2.094;2023-09-30T06:22:54;97688.38;;;9.71;100.00
27334;BME280;14817;57.104;-2.094;2023-09-30T06:25:22;97682.38;;;9.75;100.00
27334;BME280;14817;57.104;-2.094;2023-09-30T06:27:51;97687.94;;;9.74;100.00
27334;BME280;14817;57.104;-2.094;2023-09-30T06:30:19;97696.16;;;9.72;100.00
27334;BME280;14817;57.104;-2.094;2023-09-30T06:32:47;97711.16;;;9.73;100.00
27334;BME280;14817;57.104;-2.094;2023-09-30T06:35:14;97735.00;;;9.75;100.00
27334;BME280;14817;57.104;-2.094;2023-09-30T06:37:41;97738.44;;;9.82;100.00
27334;BME280;14817;57.104;-2.094;2023-09-30T06:40:09;97736.16;;;9.86;100.00
27334;BME280;14817;57.104;-2.094;2023-09-30T06:42:38;97735.53;;;9.90;100.00
27334;BME280;14817;57.104;-2.094;2023-09-30T06:45:06;97741.22;;;9.94;100.00
27334;BME280;14817;57.104;-2.094;2023-09-30T06:47:34;97734.16;;;10.06;100.00
27334;BME280;14817;57.104;-2.094;2023-09-30T06:50:02;97726.34;;;10.05;100.00
27334;BME280;14817;57.104;-2.094;2023-09-30T06:52:35;97709.75;;;10.21;100.00
27334;BME280;14817;57.104;-2.094;2023-09-30T06:55:02;97719.84;;;10.19;100.00
27334;BME280;14817;57.104;-2.094;2023-09-30T06:57:33;97714.22;;;10.27;100.00
27334;BME280;14817;57.104;-2.094;2023-09-30T07:00:00;97733.00;;;10.20;100.00
27334;BME280;14817;57.104;-2.094;2023-09-30T07:02:28;97745.56;;;10.20;100.00
27334;BME280;14817;57.104;-2.094;2023-09-30T07:04:54;97756.44;;;10.25;100.00
27334;BME280;14817;57.104;-2.094;2023-09-30T07:07:21;97748.59;;;10.30;100.00
27334;BME280;14817;57.104;-2.094;2023-09-30T07:09:48;97744.00;;;10.37;100.00
27334;BME280;14817;57.104;-2.094;2023-09-30T07:12:15;97728.50;;;10.46;100.00
27334;BME280;14817;57.104;-2.094;2023-09-30T07:14:41;97730.66;;;10.56;100.00
27334;BME280;14817;57.104;-2.094;2023-09-30T07:17:08;97721.44;;;10.70;100.00
27334;BME280;14817;57.104;-2.094;2023-09-30T07:19:35;97721.03;;;10.73;100.00
27334;BME280;14817;57.104;-2.094;2023-09-30T07:22:02;97731.41;;;10.81;100.00
27334;BME280;14817;57.104;-2.094;2023-09-30T07:24:30;97752.41;;;10.85;100.00
27334;BME280;14817;57.104;-2.094;2023-09-30T07:26:57;97767.50;;;10.97;100.00
27334;BME280;14817;57.104;-2.094;2023-09-30T07:29:26;97795.16;;;10.91;100.00
27334;BME280;14817;57.104;-2.094;2023-09-30T07:31:52;97818.66;;;10.89;100.00
27334;BME280;14817;57.104;-2.094;2023-09-30T07:34:19;97833.63;;;10.97;100.00
27334;BME280;14817;57.104;-2.094;2023-09-30T07:36:46;97833.09;;;11.07;100.00
27334;BME280;14817;57.104;-2.094;2023-09-30T07:39:13;97836.97;;;11.11;100.00
27334;BME280;14817;57.104;-2.094;2023-09-30T07:41:39;97844.28;;;11.22;100.00
27334;BME280;14817;57.104;-2.094;2023-09-30T07:44:06;97854.63;;;11.18;100.00
27334;BME280;14817;57.104;-2.094;2023-09-30T07:46:35;97854.91;;;11.29;100.00
27334;BME280;14817;57.104;-2.094;2023-09-30T07:49:03;97869.75;;;11.31;100.00
27334;BME280;14817;57.104;-2.094;2023-09-30T07:51:29;97892.38;;;11.54;100.00
27334;BME280;14817;57.104;-2.094;2023-09-30T07:53:56;97916.00;;;11.63;100.00
27334;BME280;14817;57.104;-2.094;2023-09-30T07:56:40;97931.09;;;11.76;100.00
27334;BME280;14817;57.104;-2.094;2023-09-30T07:59:06;97948.69;;;11.72;100.00
27334;BME280;14817;57.104;-2.094;2023-09-30T08:01:33;97983.22;;;11.62;100.00
27334;BME280;14817;57.104;-2.094;2023-09-30T08:04:00;98008.88;;;11.51;100.00
27334;BME280;14817;57.104;-2.094;2023-09-30T08:06:27;98023.44;;;11.62;100.00
27334;BME280;14817;57.104;-2.094;2023-09-30T08:08:54;98055.53;;;11.43;100.00
27334;BME280;14817;57.104;-2.094;2023-09-30T08:11:22;98071.59;;;11.50;100.00
27334;BME280;14817;57.104;-2.094;2023-09-30T08:13:48;98075.63;;;11.59;100.00
27334;BME280;14817;57.104;-2.094;2023-09-30T08:16:15;98087.63;;;11.57;100.00
27334;BME280;14817;57.104;-2.094;2023-09-30T08:18:46;98095.81;;;11.62;100.00
27334;BME280;14817;57.104;-2.094;2023-09-30T08:21:12;98099.53;;;11.61;100.00
27334;BME280;14817;57.104;-2.094;2023-09-30T08:23:40;98096.63;;;11.62;100.00
27334;BME280;14817;57.104;-2.094;2023-09-30T08:26:09;98112.41;;;11.52;100.00
27334;BME280;14817;57.104;-2.094;2023-09-30T08:28:36;98106.97;;;11.59;100.00
27334;BME280;14817;57.104;-2.094;2023-09-30T08:31:05;98099.03;;;11.71;100.00
27334;BME280;14817;57.104;-2.094;2023-09-30T08:33:32;98105.66;;;11.68;100.00
27334;BME280;14817;57.104;-2.094;2023-09-30T08:36:02;98104.34;;;11.77;100.00
27334;BME280;14817;57.104;-2.094;2023-09-30T08:38:34;98117.53;;;11.79;100.00
27334;BME280;14817;57.104;-2.094;2023-09-30T08:41:01;98126.03;;;11.76;100.00
27334;BME280;14817;57.104;-2.094;2023-09-30T08:43:28;98143.00;;;11.70;100.00
27334;BME280;14817;57.104;-2.094;2023-09-30T08:45:58;98151.28;;;11.61;100.00
27334;BME280;14817;57.104;-2.094;2023-09-30T08:48:26;98159.84;;;11.45;100.00
27334;BME280;14817;57.104;-2.094;2023-09-30T08:50:53;98149.13;;;11.45;100.00
27334;BME280;14817;57.104;-2.094;2023-09-30T08:53:23;98146.25;;;11.47;100.00
27334;BME280;14817;57.104;-2.094;2023-09-30T08:55:54;98155.75;;;11.42;100.00
27334;BME280;14817;57.104;-2.094;2023-09-30T08:58:23;98159.75;;;11.33;100.00
27334;BME280;14817;57.104;-2.094;2023-09-30T09:00:50;98164.19;;;11.46;100.00
27334;BME280;14817;57.104;-2.094;2023-09-30T09:03:20;98166.06;;;11.39;100.00
27334;BME280;14817;57.104;-2.094;2023-09-30T09:05:54;98157.63;;;11.42;100.00
27334;BME280;14817;57.104;-2.094;2023-09-30T09:08:25;98152.81;;;11.51;100.00
27334;BME280;14817;57.104;-2.094;2023-09-30T09:10:56;98150.53;;;11.54;100.00
27334;BME280;14817;57.104;-2.094;2023-09-30T09:13:23;98155.28;;;11.52;100.00
27334;BME280;14817;57.104;-2.094;2023-09-30T09:15:50;98146.88;;;11.74;100.00
27334;BME280;14817;57.104;-2.094;2023-09-30T09:18:30;98143.47;;;11.85;100.00
27334;BME280;14817;57.104;-2.094;2023-09-30T09:21:07;98143.91;;;11.82;100.00
27334;BME280;14817;57.104;-2.094;2023-09-30T09:23:38;98143.00;;;11.70;100.00
27334;BME280;14817;57.104;-2.094;2023-09-30T09:26:05;98121.28;;;11.78;100.00
27334;BME280;14817;57.104;-2.094;2023-09-30T09:28:36;98091.41;;;11.99;100.00
27334;BME280;14817;57.104;-2.094;2023-09-30T09:31:21;98088.38;;;11.89;100.00
27334;BME280;14817;57.104;-2.094;2023-09-30T09:33:52;98088.63;;;11.81;100.00
27334;BME280;14817;57.104;-2.094;2023-09-30T09:36:20;98094.16;;;11.93;100.00
27334;BME280;14817;57.104;-2.094;2023-09-30T09:38:50;98092.63;;;11.97;100.00
27334;BME280;14817;57.104;-2.094;2023-09-30T09:41:20;98102.88;;;12.07;100.00
27334;BME280;14817;57.104;-2.094;2023-09-30T09:43:50;98125.06;;;12.14;100.00
27334;BME280;14817;57.104;-2.094;2023-09-30T09:46:17;98111.22;;;12.17;100.00
27334;BME280;14817;57.104;-2.094;2023-09-30T09:48:45;98116.13;;;12.20;100.00
27334;BME280;14817;57.104;-2.094;2023-09-30T09:51:13;98124.50;;;12.30;100.00
27334;BME280;14817;57.104;-2.094;2023-09-30T09:53:40;98134.56;;;12.35;100.00
27334;BME280;14817;57.104;-2.094;2023-09-30T09:56:07;98156.84;;;12.17;100.00
27334;BME280;14817;57.104;-2.094;2023-09-30T09:58:36;98137.78;;;12.25;100.00
27334;BME280;14817;57.104;-2.094;2023-09-30T10:01:08;98109.91;;;12.44;100.00
27334;BME280;14817;57.104;-2.094;2023-09-30T10:03:37;98106.00;;;12.22;100.00
27334;BME280;14817;57.104;-2.094;2023-09-30T10:06:05;98085.66;;;12.33;100.00
27334;BME280;14817;57.104;-2.094;2023-09-30T10:08:42;98073.28;;;12.50;100.00
27334;BME280;14817;57.104;-2.094;2023-09-30T10:11:17;98089.97;;;12.52;100.00
27334;BME280;14817;57.104;-2.094;2023-09-30T10:13:54;98072.94;;;12.77;100.00
27334;BME280;14817;57.104;-2.094;2023-09-30T10:19:09;98099.09;;;12.70;100.00
27334;BME280;14817;57.104;-2.094;2023-09-30T10:21:36;98077.53;;;12.88;100.00
27334;BME280;14817;57.104;-2.094;2023-09-30T10:29:40;98087.69;;;13.16;100.00
27334;BME280;14817;57.104;-2.094;2023-09-30T10:32:10;98098.09;;;13.24;100.00
27334;BME280;14817;57.104;-2.094;2023-09-30T10:34:36;98096.25;;;13.25;100.00
27334;BME280;14817;57.104;-2.094;2023-09-30T10:37:20;98122.47;;;13.30;100.00
27334;BME280;14817;57.104;-2.094;2023-09-30T10:39:53;98141.22;;;13.48;100.00
27334;BME280;14817;57.104;-2.094;2023-09-30T10:53:20;98339.09;;;13.56;100.00
27334;BME280;14817;57.104;-2.094;2023-09-30T10:55:50;98355.81;;;13.58;100.00
27334;BME280;14817;57.104;-2.094;2023-09-30T10:58:20;98365.97;;;13.56;100.00
27334;BME280;14817;57.104;-2.094;2023-09-30T11:00:54;98361.84;;;13.72;100.00
27334;BME280;14817;57.104;-2.094;2023-09-30T11:03:21;98361.41;;;13.75;100.00
27334;BME280;14817;57.104;-2.094;2023-09-30T11:05:49;98366.63;;;13.69;100.00
27334;BME280;14817;57.104;-2.094;2023-09-30T11:08:37;98350.72;;;13.68;100.00
27334;BME280;14817;57.104;-2.094;2023-09-30T11:11:05;98331.44;;;13.71;100.00
27334;BME280;14817;57.104;-2.094;2023-09-30T11:13:32;98324.88;;;13.67;100.00
27334;BME280;14817;57.104;-2.094;2023-09-30T11:16:02;98316.78;;;13.67;100.00
27334;BME280;14817;57.104;-2.094;2023-09-30T11:18:29;98303.34;;;13.67;100.00
27334;BME280;14817;57.104;-2.094;2023-09-30T11:21:03;98291.66;;;13.61;100.00
27334;BME280;14817;57.104;-2.094;2023-09-30T11:23:31;98269.19;;;13.67;100.00
27334;BME280;14817;57.104;-2.094;2023-09-30T11:25:58;98257.72;;;13.60;100.00
27334;BME280;14817;57.104;-2.094;2023-09-30T11:28:25;98249.66;;;13.60;100.00
27334;BME280;14817;57.104;-2.094;2023-09-30T11:30:57;98242.72;;;13.53;100.00
27334;BME280;14817;57.104;-2.094;2023-09-30T11:33:24;98229.94;;;13.48;100.00
27334;BME280;14817;57.104;-2.094;2023-09-30T11:35:57;98221.06;;;13.47;100.00
27334;BME280;14817;57.104;-2.094;2023-09-30T11:38:25;98223.38;;;13.44;100.00
27334;BME280;14817;57.104;-2.094;2023-09-30T11:41:02;98207.19;;;13.51;100.00
27334;BME280;14817;57.104;-2.094;2023-09-30T11:43:34;98202.16;;;13.54;100.00
27334;BME280;14817;57.104;-2.094;2023-09-30T11:46:05;98188.25;;;13.57;100.00
27334;BME280;14817;57.104;-2.094;2023-09-30T11:48:32;98177.81;;;13.49;100.00
27334;BME280;14817;57.104;-2.094;2023-09-30T11:50:59;98144.06;;;13.53;100.00
27334;BME280;14817;57.104;-2.094;2023-09-30T11:53:31;98122.41;;;13.48;100.00
27334;BME280;14817;57.104;-2.094;2023-09-30T11:55:58;98114.81;;;13.45;100.00
27334;BME280;14817;57.104;-2.094;2023-09-30T11:58:26;98091.19;;;13.47;100.00
27334;BME280;14817;57.104;-2.094;2023-09-30T12:00:57;98060.91;;;13.52;100.00
27334;BME280;14817;57.104;-2.094;2023-09-30T12:03:24;98047.38;;;13.46;100.00
27334;BME280;14817;57.104;-2.094;2023-09-30T12:05:52;98030.38;;;13.46;100.00
27334;BME280;14817;57.104;-2.094;2023-09-30T12:08:24;98030.88;;;13.43;100.00
27334;BME280;14817;57.104;-2.094;2023-09-30T12:10:51;98054.47;;;13.41;100.00
27334;BME280;14817;57.104;-2.094;2023-09-30T12:13:18;98063.56;;;13.40;100.00
27334;BME280;14817;57.104;-2.094;2023-09-30T12:15:45;98056.25;;;13.47;100.00
27334;BME280;14817;57.104;-2.094;2023-09-30T12:18:12;98057.06;;;13.47;100.00
27334;BME280;14817;57.104;-2.094;2023-09-30T12:20:43;98063.13;;;13.43;100.00
27334;BME280;14817;57.104;-2.094;2023-09-30T12:23:10;98060.22;;;13.44;100.00
27334;BME280;14817;57.104;-2.094;2023-09-30T12:25:37;98057.75;;;13.43;100.00
27334;BME280;14817;57.104;-2.094;2023-09-30T12:28:04;98058.44;;;13.38;100.00
27334;BME280;14817;57.104;-2.094;2023-09-30T12:30:32;98057.50;;;13.33;100.00
27334;BME280;14817;57.104;-2.094;2023-09-30T12:32:59;98041.63;;;13.43;100.00
27334;BME280;14817;57.104;-2.094;2023-09-30T12:35:26;98032.00;;;13.35;100.00
27334;BME280;14817;57.104;-2.094;2023-09-30T12:37:53;98000.13;;;13.39;100.00
27334;BME280;14817;57.104;-2.094;2023-09-30T12:40:19;97979.19;;;13.41;100.00
27334;BME280;14817;57.104;-2.094;2023-09-30T12:42:46;97955.69;;;13.48;100.00
27334;BME280;14817;57.104;-2.094;2023-09-30T12:45:13;97954.44;;;13.51;100.00
27334;BME280;14817;57.104;-2.094;2023-09-30T12:47:40;97940.84;;;13.57;100.00
27334;BME280;14817;57.104;-2.094;2023-09-30T12:50:07;97918.03;;;13.60;100.00
27334;BME280;14817;57.104;-2.094;2023-09-30T12:52:38;97889.63;;;13.52;100.00
27334;BME280;14817;57.104;-2.094;2023-09-30T12:55:05;97901.91;;;13.60;100.00
27334;BME280;14817;57.104;-2.094;2023-09-30T12:57:32;97922.97;;;13.51;100.00
27334;BME280;14817;57.104;-2.094;2023-09-30T12:59:58;97934.53;;;13.52;100.00
27334;BME280;14817;57.104;-2.094;2023-09-30T13:02:25;97939.09;;;13.51;100.00
27334;BME280;14817;57.104;-2.094;2023-09-30T13:04:52;97970.53;;;13.39;100.00
27334;BME280;14817;57.104;-2.094;2023-09-30T13:07:21;97988.78;;;13.37;100.00